Time;durP1;ratioP1;P1;durP2;ratioP2;P2;SDS_P1;SDS_P2;PMS_P1;PMS_P2;Temp;Humidity;BMP_temperature;BMP_pressure;BME280_temperature;BME280_humidity;BME280_pressure;Samples;Min_cycle;Max_cycle;Signal;HPM_P1;HPM_P2
2022/07/18 00:02:24;;;;;;;3.27;2.52;;;;;;;14.52;100.00;99734.14;1778603;80;21479;-79
2022/07/18 00:04:52;;;;;;;3.52;2.55;;;;;;;14.50;100.00;99744.39;1778856;81;21000;-79
2022/07/18 00:07:19;;;;;;;2.60;2.40;;;;;;;14.48;100.00;99754.11;1778503;80;21127;-80
2022/07/18 00:09:47;;;;;;;2.37;2.27;;;;;;;14.47;100.00;99759.78;1778591;80;21033;-81
2022/07/18 00:12:14;;;;;;;2.70;2.50;;;;;;;14.44;100.00;99765.92;1778668;80;21045;-80
2022/07/18 00:14:41;;;;;;;5.28;2.70;;;;;;;14.43;100.00;99775.15;1778854;81;21028;-79
2022/07/18 00:17:08;;;;;;;4.47;2.50;;;;;;;14.41;100.00;99781.31;1778562;80;21068;-80
2022/07/18 00:19:36;;;;;;;2.22;2.08;;;;;;;14.40;100.00;99787.78;1778553;80;21040;-81
2022/07/18 00:22:04;;;;;;;3.35;2.50;;;;;;;14.38;100.00;99788.52;1778953;81;20996;-81
2022/07/18 00:24:32;;;;;;;2.67;2.00;;;;;;;14.34;100.00;99801.34;1778692;80;21011;-80
2022/07/18 00:27:02;;;;;;;1.98;1.87;;;;;;;14.31;100.00;99807.21;1778602;80;21024;-81
2022/07/18 00:29:29;;;;;;;3.12;2.10;;;;;;;14.29;100.00;99814.70;1778702;81;21079;-80
2022/07/18 00:31:56;;;;;;;2.27;2.08;;;;;;;14.26;100.00;99821.40;1778489;80;21060;-81
2022/07/18 00:34:24;;;;;;;2.02;1.90;;;;;;;14.23;100.00;99836.75;1778557;81;21033;-81
2022/07/18 00:36:51;;;;;;;3.08;1.95;;;;;;;14.21;100.00;99846.98;1778807;81;21021;-80
2022/07/18 00:39:18;;;;;;;2.00;1.87;;;;;;;14.16;100.00;99856.26;1778824;80;21008;-79
2022/07/18 00:41:47;;;;;;;2.20;1.87;;;;;;;14.10;100.00;99851.10;1778893;80;21013;-80
2022/07/18 00:44:23;;;;;;;1.92;1.72;;;;;;;14.05;100.00;99858.48;1779064;81;20969;-80
2022/07/18 00:46:53;;;;;;;2.22;1.80;;;;;;;14.01;100.00;99865.36;1778726;81;21040;-81
2022/07/18 00:49:19;;;;;;;1.98;1.80;;;;;;;13.98;100.00;99872.55;1717620;83;21203;-81
2022/07/18 00:51:48;;;;;;;2.65;2.12;;;;;;;13.95;100.00;99878.89;1717317;83;21086;-81
2022/07/18 00:54:15;;;;;;;2.20;2.00;;;;;;;13.89;100.00;99879.70;1717651;83;20987;-80
2022/07/18 00:56:43;;;;;;;2.00;1.65;;;;;;;13.84;100.00;99889.79;1725184;83;21014;-80
2022/07/18 00:59:11;;;;;;;2.45;1.60;;;;;;;13.79;100.00;99897.19;1728552;83;21082;-82
2022/07/18 01:01:46;;;;;;;2.05;1.82;;;;;;;13.76;100.00;99906.25;1728419;83;21023;-80
2022/07/18 01:04:21;;;;;;;3.05;1.60;;;;;;;13.72;100.00;99903.05;1728461;83;21031;-80
2022/07/18 01:06:49;;;;;;;1.92;1.72;;;;;;;13.67;100.00;99915.88;1705036;84;21066;-80
2022/07/18 01:09:17;;;;;;;2.25;1.92;;;;;;;13.64;100.00;99920.86;1673309;86;21050;-80
2022/07/18 01:11:45;;;;;;;1.62;1.52;;;;;;;13.60;100.00;99919.05;1673598;86;20979;-80
2022/07/18 01:14:12;;;;;;;2.55;1.60;;;;;;;13.56;100.00;99922.34;1673663;86;21198;-80
2022/07/18 01:16:39;;;;;;;1.60;1.47;;;;;;;13.54;100.00;99928.48;1673430;86;21011;-80
2022/07/18 01:19:06;;;;;;;2.05;1.80;;;;;;;13.50;100.00;99928.03;1674882;86;21074;-80
2022/07/18 01:21:33;;;;;;;3.75;1.60;;;;;;;13.48;100.00;99927.39;1676650;86;20968;-80
2022/07/18 01:24:00;;;;;;;3.55;1.65;;;;;;;13.45;100.00;99933.20;1673902;86;21050;-81
2022/07/18 01:26:27;;;;;;;2.42;1.50;;;;;;;13.42;100.00;99934.44;1673669;84;21517;-80
2022/07/18 01:28:54;;;;;;;1.62;1.45;;;;;;;13.40;100.00;99943.80;1673619;86;21026;-80
2022/07/18 01:31:22;;;;;;;1.67;1.50;;;;;;;13.37;100.00;99949.11;1673557;86;21486;-80
2022/07/18 01:33:49;;;;;;;2.72;1.50;;;;;;;13.34;100.00;99944.05;1673530;86;21027;-81
2022/07/18 01:36:16;;;;;;;2.75;1.40;;;;;;;13.32;100.00;99945.29;1673644;86;21030;-81
2022/07/18 01:38:43;;;;;;;1.75;1.55;;;;;;;13.28;100.00;99957.84;1673608;86;21070;-81
2022/07/18 01:41:10;;;;;;;1.37;1.27;;;;;;;13.25;100.00;99962.82;1673642;86;21015;-80
2022/07/18 01:43:41;;;;;;;3.30;1.45;;;;;;;13.22;100.00;99956.41;1673553;86;21039;-81
2022/07/18 01:46:10;;;;;;;2.58;1.40;;;;;;;13.20;100.00;99959.83;1689909;84;21016;-81
2022/07/18 01:48:38;;;;;;;1.90;1.75;;;;;;;13.17;100.00;99961.56;1704769;84;21032;-81
2022/07/18 01:51:09;;;;;;;2.05;1.50;;;;;;;13.14;100.00;99963.29;1704572;84;21518;-81
2022/07/18 01:53:38;;;;;;;1.47;1.37;;;;;;;13.11;100.00;99959.09;1704636;84;21024;-80
2022/07/18 01:56:06;;;;;;;3.20;1.27;;;;;;;13.10;100.00;99966.90;1704749;84;21020;-82
2022/07/18 01:58:32;;;;;;;2.52;1.37;;;;;;;13.08;100.00;99973.91;1704811;84;21055;-81
2022/07/18 02:00:59;;;;;;;1.80;1.60;;;;;;;13.07;100.00;99970.02;1704864;84;21032;-80
2022/07/18 02:03:27;;;;;;;3.65;1.52;;;;;;;13.06;100.00;99973.22;1704920;83;21095;-80
2022/07/18 02:05:54;;;;;;;1.50;1.40;;;;;;;13.03;100.00;99972.27;1704932;84;21048;-80
2022/07/18 02:08:21;;;;;;;1.50;1.40;;;;;;;13.00;100.00;99973.99;1704542;84;21027;-80
2022/07/18 02:10:47;;;;;;;1.37;1.27;;;;;;;12.98;100.00;99977.91;1751832;80;21068;-80
2022/07/18 02:13:16;;;;;;;1.60;1.50;;;;;;;12.93;100.00;99969.52;1762325;81;20997;-81
2022/07/18 02:15:44;;;;;;;1.98;1.20;;;;;;;12.88;100.00;99973.62;1762126;81;21526;-80
2022/07/18 02:18:11;;;;;;;1.55;1.40;;;;;;;12.87;100.00;99972.45;1762023;81;20982;-79
2022/07/18 02:20:38;;;;;;;1.80;1.42;;;;;;;12.82;100.00;99974.88;1761773;81;21516;-80
2022/07/18 02:23:07;;;;;;;1.60;1.50;;;;;;;12.80;100.00;99964.23;1762110;81;21029;-81
2022/07/18 02:25:35;;;;;;;1.40;1.37;;;;;;;12.79;100.00;99973.91;1761827;81;21048;-81
2022/07/18 02:28:04;;;;;;;3.15;1.62;;;;;;;12.76;100.00;99972.40;1761932;81;21049;-80
2022/07/18 02:30:31;;;;;;;2.02;1.42;;;;;;;12.75;100.00;99975.30;1762113;81;21471;-81
2022/07/18 02:32:58;;;;;;;3.83;1.62;;;;;;;12.73;100.00;99972.80;1761982;81;21273;-81
2022/07/18 02:35:25;;;;;;;1.42;1.32;;;;;;;12.71;100.00;99968.91;1762141;81;21491;-79
2022/07/18 02:37:52;;;;;;;1.65;1.25;;;;;;;12.71;100.00;99977.05;1762121;81;21033;-81
2022/07/18 02:40:20;;;;;;;1.62;1.45;;;;;;;12.71;100.00;99977.54;1761897;81;21080;-81
2022/07/18 02:42:46;;;;;;;1.60;1.47;;;;;;;12.70;100.00;99976.70;1762096;81;21444;-80
2022/07/18 02:45:14;;;;;;;3.90;1.50;;;;;;;12.71;100.00;99967.55;1761994;81;21092;-81
2022/07/18 02:47:43;;;;;;;1.80;1.70;;;;;;;12.70;100.00;99964.50;1761648;80;21547;-81
2022/07/18 02:50:10;;;;;;;1.47;1.22;;;;;;;12.70;100.00;99969.92;1762139;81;21032;-80
2022/07/18 02:52:39;;;;;;;1.10;1.00;;;;;;;12.69;100.00;99966.88;1761638;81;21496;-80
2022/07/18 02:55:07;;;;;;;1.25;1.15;;;;;;;12.70;100.00;99967.73;1761978;81;21038;-80
2022/07/18 02:57:34;;;;;;;3.02;1.30;;;;;;;12.69;100.00;99968.23;1761812;81;21025;-80
2022/07/18 03:00:02;;;;;;;2.27;1.37;;;;;;;12.69;100.00;99968.75;1762061;81;21006;-80
2022/07/18 03:02:30;;;;;;;1.52;1.42;;;;;;;12.70;100.00;99967.21;1761955;81;21068;-81
2022/07/18 03:04:57;;;;;;;1.45;1.35;;;;;;;12.70;100.00;99965.86;1761950;81;21081;-80
2022/07/18 03:07:24;;;;;;;2.90;1.60;;;;;;;12.72;100.00;99967.03;1762002;81;21495;-80
2022/07/18 03:09:51;;;;;;;2.72;1.02;;;;;;;12.72;100.00;99965.67;1761710;81;21093;-80
2022/07/18 03:12:18;;;;;;;1.60;1.45;;;;;;;12.73;100.00;99966.02;1762029;81;21005;-80
2022/07/18 03:14:47;;;;;;;1.20;1.20;;;;;;;12.74;100.00;99952.76;1761600;81;21049;-79
2022/07/18 03:17:14;;;;;;;1.67;1.57;;;;;;;12.75;100.00;99965.31;1762003;81;20989;-79
2022/07/18 03:19:41;;;;;;;2.67;1.60;;;;;;;12.76;100.00;99957.48;1761776;81;21025;-80
2022/07/18 03:22:08;;;;;;;4.58;1.77;;;;;;;12.77;100.00;99961.05;1761895;81;21029;-80
2022/07/18 03:24:35;;;;;;;2.35;1.85;;;;;;;12.79;100.00;99954.40;1761791;81;20998;-79
2022/07/18 03:27:02;;;;;;;2.25;1.65;;;;;;;12.82;100.00;99955.39;1762124;81;21037;-80
2022/07/18 03:29:29;;;;;;;4.62;1.90;;;;;;;12.88;100.00;99959.22;1761522;80;21033;-79
2022/07/18 03:31:56;;;;;;;4.22;1.80;;;;;;;12.92;100.00;99960.52;1762031;81;21486;-79
2022/07/18 03:34:23;;;;;;;1.75;1.50;;;;;;;12.96;100.00;99958.27;1762059;81;21063;-78
2022/07/18 03:36:49;;;;;;;4.00;2.25;;;;;;;13.00;100.00;99960.95;1762122;81;20977;-79
2022/07/18 03:39:16;;;;;;;4.40;2.33;;;;;;;13.05;100.00;99965.27;1762097;80;21017;-80
2022/07/18 03:41:44;;;;;;;2.35;1.80;;;;;;;13.10;100.00;99961.47;1761991;80;21033;-79
2022/07/18 03:44:11;;;;;;;1.77;1.67;;;;;;;13.17;100.00;99962.39;1761623;81;21109;-78
2022/07/18 03:46:38;;;;;;;2.10;1.90;;;;;;;13.24;100.00;99959.27;1761980;81;21009;-79
2022/07/18 03:49:05;;;;;;;2.65;1.82;;;;;;;13.33;100.00;99957.29;1761698;81;21531;-79
2022/07/18 03:51:32;;;;;;;1.92;1.52;;;;;;;13.45;100.00;99960.36;1761862;81;21001;-79
2022/07/18 03:53:58;;;;;;;1.65;1.55;;;;;;;13.55;100.00;99962.78;1761710;81;21057;-79
2022/07/18 03:56:25;;;;;;;3.55;1.70;;;;;;;13.64;100.00;99965.70;1762030;81;21464;-80
2022/07/18 03:58:51;;;;;;;2.27;2.00;;;;;;;13.71;100.00;99969.84;1761907;81;21021;-79
2022/07/18 04:01:18;;;;;;;3.12;2.05;;;;;;;13.78;100.00;99971.59;1762061;81;21471;-79
2022/07/18 04:03:45;;;;;;;2.42;2.10;;;;;;;13.86;100.00;99985.06;1761769;81;21068;-79
2022/07/18 04:06:12;;;;;;;2.60;2.27;;;;;;;13.96;100.00;99984.72;1761880;81;21033;-79
2022/07/18 04:08:39;;;;;;;3.10;2.00;;;;;;;14.05;100.00;99986.79;1761809;81;21056;-79
2022/07/18 04:11:06;;;;;;;5.00;2.37;;;;;;;14.12;100.00;99991.77;1756482;81;21053;-79
2022/07/18 04:13:34;;;;;;;3.02;2.00;;;;;;;14.20;100.00;100004.38;1756621;82;21029;-80
2022/07/18 04:16:00;;;;;;;2.50;2.20;;;;;;;14.29;100.00;100015.95;1756940;82;21551;-80
2022/07/18 04:18:27;;;;;;;2.05;1.80;;;;;;;14.37;100.00;100013.11;1756918;82;21579;-80
2022/07/18 04:20:54;;;;;;;3.20;1.70;;;;;;;14.46;100.00;100023.33;1757009;82;21524;-78
2022/07/18 04:23:21;;;;;;;1.98;1.50;;;;;;;14.56;100.00;100027.92;1756816;82;21014;-80
2022/07/18 04:25:48;;;;;;;2.15;1.75;;;;;;;14.67;100.00;100034.20;1756831;80;21053;-80
2022/07/18 04:28:15;;;;;;;3.52;1.50;;;;;;;14.80;100.00;100038.89;1756942;82;21022;-80
2022/07/18 04:30:43;;;;;;;3.05;1.70;;;;;;;14.97;100.00;100037.54;1756940;82;21025;-79
2022/07/18 04:33:10;;;;;;;2.58;1.80;;;;;;;15.14;100.00;100048.97;1760066;82;21005;-79
2022/07/18 04:35:38;;;;;;;1.42;1.32;;;;;;;15.33;100.00;100057.44;1759956;82;21052;-80
2022/07/18 04:38:07;;;;;;;4.35;1.72;;;;;;;15.50;100.00;100064.76;1757331;82;20997;-80
2022/07/18 04:40:34;;;;;;;2.60;1.50;;;;;;;15.67;100.00;100081.09;1757045;82;20970;-80
2022/07/18 04:43:01;;;;;;;3.87;1.55;;;;;;;15.85;100.00;100082.45;1757077;80;20993;-80
2022/07/18 04:45:29;;;;;;;4.45;1.75;;;;;;;16.01;100.00;100093.51;1756812;82;21556;-80
2022/07/18 04:47:56;;;;;;;3.00;1.90;;;;;;;16.20;100.00;100097.31;1756782;82;21076;-80
2022/07/18 04:50:24;;;;;;;2.95;1.62;;;;;;;16.38;100.00;100100.80;1757171;82;21049;-79
2022/07/18 04:52:51;;;;;;;2.08;1.87;;;;;;;16.57;100.00;100108.70;1756937;82;21052;-79
2022/07/18 04:55:21;;;;;;;2.67;1.70;;;;;;;16.73;100.00;100115.11;1756720;80;21049;-78
2022/07/18 04:57:48;;;;;;;3.22;1.70;;;;;;;16.91;100.00;100119.13;1757555;82;21005;-77
2022/07/18 05:00:18;;;;;;;6.85;5.10;;;;;;;17.07;100.00;100122.29;1757856;80;21403;-77
2022/07/18 05:02:48;;;;;;;10.30;6.53;;;;;;;17.25;100.00;100128.45;1757095;82;21021;-78
2022/07/18 05:05:16;;;;;;;5.05;4.12;;;;;;;17.49;100.00;100137.55;1752279;82;20996;-73
2022/07/18 05:07:45;;;;;;;5.37;4.00;;;;;;;17.71;100.00;100138.97;1751884;82;21052;-73
2022/07/18 05:10:14;;;;;;;7.75;6.03;;;;;;;17.93;100.00;100153.21;1750417;82;21096;-73
2022/07/18 05:12:44;;;;;;;8.40;6.05;;;;;;;18.12;100.00;100153.36;1749161;81;21068;-71
2022/07/18 05:15:14;;;;;;;37.15;27.70;;;;;;;18.26;100.00;100164.55;1749143;82;21594;-74
2022/07/18 05:17:42;;;;;;;33.78;26.10;;;;;;;18.44;100.00;100168.45;1749033;81;21041;-75
2022/07/18 05:20:16;;;;;;;6.78;5.22;;;;;;;18.60;100.00;100182.98;1748993;82;21068;-74
2022/07/18 05:22:44;;;;;;;4.78;3.10;;;;;;;18.78;100.00;100192.64;1760377;81;20980;-73
2022/07/18 05:25:12;;;;;;;5.10;2.05;;;;;;;18.97;100.00;100194.97;1740741;82;21107;-73
2022/07/18 05:27:39;;;;;;;5.67;3.02;;;;;;;19.15;100.00;100194.72;1809667;79;21446;-70
2022/07/18 05:30:07;;;;;;;170.17;152.57;;;;;;;19.32;100.00;100205.98;1809344;79;21537;-71
2022/07/18 05:32:34;;;;;;;46.18;41.65;;;;;;;19.53;100.00;100207.47;1809725;79;21509;-72
2022/07/18 05:35:02;;;;;;;17.70;13.48;;;;;;;19.78;100.00;100214.31;1752385;82;21024;-71
2022/07/18 05:37:30;;;;;;;8.23;6.03;;;;;;;20.03;100.00;100205.17;1752752;82;21958;-72
2022/07/18 05:39:57;;;;;;;11.40;4.35;;;;;;;20.26;100.00;100208.58;1752781;82;20993;-73
2022/07/18 05:42:23;;;;;;;4.92;3.25;;;;;;;20.48;100.00;100210.28;1767056;80;21554;-73
2022/07/18 05:44:50;;;;;;;17.92;12.28;;;;;;;20.71;100.00;100212.85;1793199;80;21015;-74
2022/07/18 05:47:17;;;;;;;4.60;4.03;;;;;;;20.91;100.00;100218.04;1792690;80;21466;-73
2022/07/18 05:49:45;;;;;;;5.67;2.65;;;;;;;21.08;100.00;100225.91;1792882;80;21055;-74
2022/07/18 05:52:11;;;;;;;4.78;2.35;;;;;;;21.26;100.00;100227.73;1793347;80;21043;-72
2022/07/18 05:54:39;;;;;;;3.95;1.60;;;;;;;21.43;100.00;100227.34;1793445;80;21055;-74
2022/07/18 05:57:05;;;;;;;4.45;1.95;;;;;;;21.59;100.00;100234.61;1758072;80;21044;-72
2022/07/18 05:59:32;;;;;;;12.63;7.17;;;;;;;21.68;100.00;100239.22;1778456;80;21015;-73
2022/07/18 06:01:59;;;;;;;5.05;3.05;;;;;;;21.78;100.00;100238.92;1754627;82;21036;-72
2022/07/18 06:04:26;;;;;;;19.82;7.85;;;;;;;21.89;100.00;100248.23;1752006;82;21075;-73
2022/07/18 06:06:53;;;;;;;4.55;3.00;;;;;;;21.98;100.00;100248.16;1751885;82;21020;-74
2022/07/18 06:09:20;;;;;;;4.00;2.02;;;;;;;22.10;100.00;100248.70;1750863;82;21111;-74
2022/07/18 06:11:47;;;;;;;1.65;1.55;;;;;;;22.24;100.00;100248.73;1751562;82;21048;-80
2022/07/18 06:14:16;;;;;;;3.33;1.60;;;;;;;22.43;100.00;100252.16;1751567;82;21067;-80
2022/07/18 06:16:43;;;;;;;2.12;1.50;;;;;;;22.56;100.00;100253.27;1751388;82;21168;-80
2022/07/18 06:19:10;;;;;;;2.60;1.42;;;;;;;22.69;100.00;100258.19;1751182;82;21067;-79
2022/07/18 06:21:37;;;;;;;5.37;1.82;;;;;;;22.80;100.00;100263.36;1751300;82;21625;-76
2022/07/18 06:24:06;;;;;;;4.78;2.50;;;;;;;22.89;100.00;100257.73;1723811;82;20997;-73
2022/07/18 06:26:33;;;;;;;13.30;2.50;;;;;;;23.01;100.00;100266.78;1786954;80;21026;-76
2022/07/18 06:29:00;;;;;;;4.83;1.60;;;;;;;23.10;100.00;100264.48;1786489;80;21006;-74
2022/07/18 06:31:28;;;;;;;5.45;2.10;;;;;;;23.20;100.00;100266.05;1790821;79;20970;-72
2022/07/18 06:33:55;;;;;;;2.62;2.42;;;;;;;23.31;100.00;100267.06;1792679;80;21049;-73
2022/07/18 06:36:23;;;;;;;28.32;19.87;;;;;;;23.45;100.00;100266.19;1792893;80;21484;-77
2022/07/18 06:38:51;;;;;;;7.22;3.40;;;;;;;23.57;100.00;100266.09;1793183;80;21174;-80
2022/07/18 06:41:19;;;;;;;19.35;14.35;;;;;;;23.64;100.00;100268.16;1796786;79;20983;-78
2022/07/18 06:43:46;;;;;;;66.85;54.60;;;;;;;23.72;100.00;100272.41;1798844;79;21035;-79
2022/07/18 06:46:13;;;;;;;25.43;17.50;;;;;;;23.83;100.00;100264.06;1795100;79;21038;-78
2022/07/18 06:48:40;;;;;;;11.10;7.50;;;;;;;24.00;100.00;100272.30;1794142;79;21585;-77
2022/07/18 06:51:08;;;;;;;10.72;5.58;;;;;;;24.07;100.00;100272.95;1786020;79;20977;-79
2022/07/18 06:53:36;;;;;;;5.67;2.85;;;;;;;24.22;100.00;100277.01;1778795;81;21550;-79
2022/07/18 06:56:04;;;;;;;5.30;1.55;;;;;;;24.39;100.00;100275.03;1784340;79;21483;-73
2022/07/18 06:58:35;;;;;;;1.77;1.60;;;;;;;24.53;100.00;100286.56;1799064;79;21046;-74
2022/07/18 07:01:04;;;;;;;5.50;1.72;;;;;;;24.67;100.00;100279.27;1809870;79;21438;-73
2022/07/18 07:03:32;;;;;;;5.25;4.08;;;;;;;24.87;100.00;100276.72;1809718;79;20964;-73
2022/07/18 07:05:58;;;;;;;6.55;4.50;;;;;;;24.99;100.00;100276.57;1809786;79;20984;-73
2022/07/18 07:08:25;;;;;;;6.30;2.55;;;;;;;25.18;100.00;100274.27;1797951;79;21008;-72
2022/07/18 07:10:52;;;;;;;3.30;1.52;;;;;;;25.31;100.00;100284.92;1778494;80;21056;-72
2022/07/18 07:13:19;;;;;;;5.22;1.70;;;;;;;25.40;100.00;100286.66;1778610;81;21021;-73
2022/07/18 07:15:46;;;;;;;2.55;1.30;;;;;;;25.46;100.00;100283.38;1778995;81;21037;-72
2022/07/18 07:18:13;;;;;;;13.72;3.22;;;;;;;25.54;100.00;100287.06;1778948;81;21053;-74
2022/07/18 07:20:40;;;;;;;12.93;4.95;;;;;;;25.50;100.00;100290.08;1778846;81;21017;-74
2022/07/18 07:23:08;;;;;;;20.40;13.40;;;;;;;25.52;100.00;100294.80;1778991;81;21016;-72
2022/07/18 07:25:36;;;;;;;4.15;2.62;;;;;;;25.58;100.00;100297.87;1778582;81;21073;-72
2022/07/18 07:28:04;;;;;;;4.67;1.98;;;;;;;25.70;100.00;100297.70;1778550;81;20997;-73
2022/07/18 07:30:33;;;;;;;6.62;1.82;;;;;;;25.75;100.00;100297.75;1778524;81;21068;-72
2022/07/18 07:33:00;;;;;;;54.73;49.48;;;;;;;25.93;100.00;100305.64;1786030;79;21655;-70
2022/07/18 07:35:27;;;;;;;75.57;67.82;;;;;;;26.08;100.00;100302.69;1794635;79;21597;-73
2022/07/18 07:37:57;;;;;;;11.20;7.95;;;;;;;26.20;100.00;100298.33;1805426;79;20996;-72
2022/07/18 07:40:25;;;;;;;3.00;2.80;;;;;;;26.36;100.00;100299.24;1809743;79;21042;-72
2022/07/18 07:42:52;;;;;;;7.42;2.30;;;;;;;26.46;100.00;100301.50;1781259;79;20937;-71
2022/07/18 07:45:19;;;;;;;3.80;1.60;;;;;;;26.62;100.00;100307.98;1778889;81;20997;-71
2022/07/18 07:47:45;;;;;;;4.75;1.30;;;;;;;26.66;96.37;100299.39;1778780;81;21032;-72
2022/07/18 07:50:13;;;;;;;13.90;2.47;;;;;;;26.67;98.11;100309.39;1778995;80;21124;-72
2022/07/18 07:52:40;;;;;;;8.10;3.72;;;;;;;26.74;97.67;100306.37;1779922;79;21486;-73
2022/07/18 07:55:08;;;;;;;4.12;2.87;;;;;;;26.84;99.38;100311.95;1793886;79;20927;-71
2022/07/18 07:57:35;;;;;;;10.00;2.50;;;;;;;26.87;97.04;100316.11;1790525;80;20974;-73
2022/07/18 08:00:06;;;;;;;6.78;1.62;;;;;;;26.70;91.90;100324.64;1792753;80;21017;-72
2022/07/18 08:02:36;;;;;;;10.43;2.98;;;;;;;26.50;92.84;100319.26;1788045;80;21509;-71
2022/07/18 08:05:03;;;;;;;3.22;2.65;;;;;;;26.39;87.09;100314.78;1792368;80;20993;-72
2022/07/18 08:07:31;;;;;;;13.98;2.90;;;;;;;26.40;87.51;100315.08;1792332;80;21022;-71
2022/07/18 08:09:57;;;;;;;2.72;1.50;;;;;;;26.55;88.28;100308.75;1792085;79;21016;-75
2022/07/18 08:12:24;;;;;;;40.03;4.72;;;;;;;26.66;89.92;100309.09;1774535;81;21058;-73
2022/07/18 08:14:52;;;;;;;5.12;1.50;;;;;;;26.71;88.11;100313.84;1773924;79;21086;-72
2022/07/18 08:17:19;;;;;;;14.53;2.33;;;;;;;26.78;89.04;100308.86;1774959;80;21058;-72
2022/07/18 08:19:46;;;;;;;5.62;2.45;;;;;;;26.92;87.79;100311.97;1766291;80;21501;-72
2022/07/18 08:22:13;;;;;;;9.15;4.15;;;;;;;27.10;84.28;100309.22;1762106;81;21035;-72
2022/07/18 08:24:42;;;;;;;5.65;1.87;;;;;;;27.26;84.10;100305.35;1730661;83;21435;-75
2022/07/18 08:27:09;;;;;;;16.07;2.75;;;;;;;27.42;82.35;100302.63;1730784;83;21032;-73
2022/07/18 08:29:37;;;;;;;4.45;2.27;;;;;;;27.51;79.72;100309.29;1731588;82;21753;-72
2022/07/18 08:32:04;;;;;;;4.72;1.50;;;;;;;27.60;76.22;100301.23;1730794;83;21063;-72
2022/07/18 08:34:31;;;;;;;2.70;1.10;;;;;;;27.59;76.32;100299.02;1731120;82;21035;-72
2022/07/18 08:36:59;;;;;;;15.83;2.22;;;;;;;27.69;76.68;100298.17;1731328;83;21031;-72
2022/07/18 08:39:28;;;;;;;4.53;1.55;;;;;;;27.75;72.21;100302.63;1731027;83;21083;-72
2022/07/18 08:41:55;;;;;;;4.00;1.00;;;;;;;27.72;71.35;100294.02;1731187;82;21031;-72
2022/07/18 08:44:22;;;;;;;9.98;1.80;;;;;;;27.59;71.01;100300.98;1735747;81;21024;-77
2022/07/18 08:46:50;;;;;;;5.67;1.60;;;;;;;27.60;69.66;100305.41;1748781;81;20981;-79
2022/07/18 08:49:17;;;;;;;1.32;0.95;;;;;;;27.62;68.28;100299.86;1697903;84;20979;-78
2022/07/18 08:51:44;;;;;;;6.87;1.47;;;;;;;27.64;68.83;100311.52;1764059;81;21007;-77
2022/07/18 08:54:12;;;;;;;2.50;1.40;;;;;;;27.70;68.59;100309.57;1721987;83;21542;-79
2022/07/18 08:56:39;;;;;;;9.35;1.62;;;;;;;27.60;65.84;100307.61;1718755;83;21027;-76
2022/07/18 08:59:06;;;;;;;3.37;1.22;;;;;;;27.56;67.23;100306.52;1757555;82;21519;-79
2022/07/18 09:01:33;;;;;;;9.95;1.72;;;;;;;27.56;66.97;100300.95;1717969;84;20996;-79
2022/07/18 09:04:16;;;;;;;9.58;3.65;;;;;;;27.56;65.02;100310.68;1757637;81;21064;-78
2022/07/18 09:06:50;;;;;;;9.48;3.10;;;;;;;27.55;64.78;100293.76;1718671;83;21099;-77
2022/07/18 09:09:17;;;;;;;9.68;6.22;;;;;;;27.65;64.29;100301.23;1763354;81;20999;-73
2022/07/18 09:11:59;;;;;;;7.30;4.75;;;;;;;27.72;63.10;100310.69;1711446;81;21049;-74
2022/07/18 09:14:39;;;;;;;5.72;2.75;;;;;;;27.87;65.13;100307.90;1679120;85;21041;-74
2022/07/18 09:17:10;;;;;;;7.58;2.20;;;;;;;28.05;63.71;100310.67;1678968;85;21085;-74
2022/07/18 09:19:39;;;;;;;4.87;2.22;;;;;;;28.17;62.13;100305.64;1689342;85;21085;-73
2022/07/18 09:22:16;;;;;;;7.75;2.65;;;;;;;28.30;60.23;100309.77;1689314;85;21102;-73
2022/07/18 09:25:08;;;;;;;2.58;1.57;;;;;;;28.36;64.52;100311.40;1689292;85;21031;-71
2022/07/18 09:27:48;;;;;;;6.35;2.65;;;;;;;28.52;62.96;100307.18;1658914;86;21529;-73
2022/07/18 09:30:25;;;;;;;43.65;6.65;;;;;;;28.51;64.38;100302.75;1638319;87;21110;-72
2022/07/18 09:33:08;;;;;;;34.03;19.70;;;;;;;28.32;60.49;100317.27;1690804;85;21509;-73
2022/07/18 09:35:46;;;;;;;46.00;22.13;;;;;;;27.94;62.72;100310.39;1661319;86;21097;-74
2022/07/18 09:38:17;;;;;;;18.00;8.88;;;;;;;27.94;65.85;100315.42;1661529;86;21070;-72
2022/07/18 09:40:47;;;;;;;150.20;93.37;;;;;;;28.15;65.25;100317.57;1635576;87;21070;-72
2022/07/18 09:43:18;;;;;;;77.85;51.28;;;;;;;28.39;63.56;100314.19;1627968;88;21022;-73
2022/07/18 09:45:51;;;;;;;17.98;9.33;;;;;;;28.59;61.09;100308.56;1581574;91;21127;-71
2022/07/18 09:48:20;;;;;;;10.40;4.53;;;;;;;28.69;59.74;100323.56;1581394;91;21103;-74
2022/07/18 09:50:59;;;;;;;5.08;3.10;;;;;;;28.67;61.56;100322.45;1581939;91;21123;-73
2022/07/18 09:53:31;;;;;;;10.32;2.80;;;;;;;28.79;61.45;100324.87;1581829;91;21596;-71
2022/07/18 09:56:00;;;;;;;7.05;2.40;;;;;;;28.99;59.56;100326.73;1538022;92;21178;-72
2022/07/18 09:58:31;;;;;;;4.47;2.45;;;;;;;29.06;59.91;100320.30;1541714;92;21048;-73
2022/07/18 10:01:01;;;;;;;6.45;2.45;;;;;;;29.14;60.00;100326.62;1540162;93;21064;-72
2022/07/18 10:03:29;;;;;;;3.37;2.58;;;;;;;29.18;58.65;100321.91;1539720;93;21084;-74
2022/07/18 10:05:58;;;;;;;5.28;3.15;;;;;;;29.27;57.44;100321.02;1539807;93;21581;-71
2022/07/18 10:08:27;;;;;;;8.20;3.47;;;;;;;29.45;59.17;100326.45;1542493;92;21088;-71
2022/07/18 10:10:55;;;;;;;4.10;2.50;;;;;;;29.66;59.45;100321.55;1540158;93;21115;-72
2022/07/18 10:13:23;;;;;;;6.97;2.60;;;;;;;29.84;59.82;100326.98;1539883;93;21072;-73
2022/07/18 10:15:51;;;;;;;5.30;2.35;;;;;;;29.99;56.47;100331.58;1545249;92;21052;-74
2022/07/18 10:18:27;;;;;;;11.00;2.90;;;;;;;30.02;53.97;100313.45;1539998;93;21611;-74
2022/07/18 10:21:00;;;;;;;3.33;1.65;;;;;;;30.00;55.30;100330.46;1539385;93;21044;-72
2022/07/18 10:23:34;;;;;;;5.45;2.90;;;;;;;30.01;56.31;100327.09;1577999;89;21017;-73
2022/07/18 10:26:25;;;;;;;24.57;13.65;;;;;;;30.08;57.64;100329.83;1596070;90;21053;-73
2022/07/18 10:29:03;;;;;;;6.90;3.40;;;;;;;30.31;56.09;100323.72;1599684;89;21049;-73
2022/07/18 10:31:37;;;;;;;51.70;6.33;;;;;;;30.42;51.04;100323.34;1602740;88;21053;-72
2022/07/18 10:34:11;;;;;;;5.20;2.40;;;;;;;30.41;50.55;100330.05;1617509;89;21033;-73
2022/07/18 10:36:54;;;;;;;4.60;2.00;;;;;;;30.34;53.35;100330.96;1587162;89;21576;-73
2022/07/18 10:39:25;;;;;;;2.42;2.33;;;;;;;30.30;51.74;100334.05;1613047;89;21050;-73
2022/07/18 10:42:01;;;;;;;4.03;2.50;;;;;;;30.22;51.59;100324.36;1624004;84;21063;-73
2022/07/18 10:44:34;;;;;;;3.77;2.33;;;;;;;30.03;51.44;100330.42;1694420;84;21119;-74
2022/07/18 10:47:23;;;;;;;2.35;1.70;;;;;;;29.95;55.09;100338.05;1726465;83;21048;-74
2022/07/18 10:49:56;;;;;;;6.03;2.47;;;;;;;30.08;53.64;100322.01;1686993;84;21588;-74
2022/07/18 10:52:32;;;;;;;5.80;2.20;;;;;;;30.15;54.91;100313.30;1704655;82;21084;-74
2022/07/18 10:55:08;;;;;;;3.75;2.70;;;;;;;30.17;54.79;100316.05;1740084;82;21060;-74
2022/07/18 10:57:41;;;;;;;2.42;2.10;;;;;;;30.15;53.72;100319.70;1739797;82;21013;-72
2022/07/18 11:00:13;;;;;;;2.83;2.60;;;;;;;30.08;54.31;100313.64;1738708;82;21122;-75
2022/07/18 11:02:50;;;;;;;6.37;2.12;;;;;;;30.08;56.51;100322.01;1739611;82;21017;-73
2022/07/18 11:05:30;;;;;;;11.75;3.50;;;;;;;30.05;54.97;100323.44;1735248;82;21593;-72
2022/07/18 11:08:09;;;;;;;6.67;2.30;;;;;;;29.81;55.34;100327.56;1737702;82;21624;-74
2022/07/18 11:10:50;;;;;;;5.45;4.42;;;;;;;29.41;55.72;100328.17;1738984;82;21115;-75
2022/07/18 11:13:40;;;;;;;5.40;3.00;;;;;;;29.29;58.95;100319.34;1739463;82;21036;-74
2022/07/18 11:16:27;;;;;;;23.05;3.52;;;;;;;29.39;58.37;100319.25;1724310;83;21169;-74
2022/07/18 11:19:01;;;;;;;6.50;3.20;;;;;;;29.54;58.92;100323.88;1724456;83;21567;-75
2022/07/18 11:21:31;;;;;;;3.37;2.30;;;;;;;29.32;57.38;100329.34;1726617;83;21041;-73
2022/07/18 11:24:03;;;;;;;3.42;1.90;;;;;;;29.18;58.56;100326.09;1727527;83;21042;-76
2022/07/18 11:26:30;;;;;;;19.67;3.42;;;;;;;29.24;57.16;100321.59;1725509;83;21074;-78
2022/07/18 11:31:48;;;;;;;9.03;3.25;;;;;;;29.34;56.91;100319.28;1633834;88;21038;-76
2022/07/18 11:34:15;;;;;;;9.90;4.10;;;;;;;29.31;54.86;100325.45;1633727;88;21145;-77